Time;durP1;ratioP1;P1;durP2;ratioP2;P2;SDS_P1;SDS_P2;PMS_P1;PMS_P2;Temp;Humidity;BMP_temperature;BMP_pressure;BME280_temperature;BME280_humidity;BME280_pressure;Samples;Min_cycle;Max_cycle;Signal;HPM_P1;HPM_P2
2022/04/09 00:00:18;;;;;;;2.20;1.40;;;4.90;99.90;;;;;;5013210;28;20403;-68
2022/04/09 00:02:43;;;;;;;4.00;1.60;;;4.80;99.90;;;;;;5011875;28;20414;-67
2022/04/09 00:05:11;;;;;;;2.50;2.40;;;4.80;99.90;;;;;;5013108;28;20187;-68
2022/04/09 00:07:37;;;;;;;2.37;1.87;;;4.80;99.90;;;;;;5012941;28;20203;-67
2022/04/09 00:10:05;;;;;;;1.90;1.60;;;4.80;99.90;;;;;;5012983;28;20410;-67
2022/04/09 00:12:30;;;;;;;2.60;1.50;;;4.70;99.90;;;;;;5013042;28;20423;-67
2022/04/09 00:14:56;;;;;;;1.87;1.77;;;4.70;99.90;;;;;;5012827;28;20416;-67
2022/04/09 00:17:21;;;;;;;1.83;1.70;;;4.70;99.90;;;;;;5012869;28;20230;-67
2022/04/09 00:19:48;;;;;;;1.83;1.70;;;4.70;99.90;;;;;;5012977;28;20209;-67
2022/04/09 00:22:14;;;;;;;1.60;1.40;;;4.60;99.90;;;;;;5013425;28;20172;-67
2022/04/09 00:24:40;;;;;;;1.60;1.30;;;4.60;99.90;;;;;;5013097;28;20622;-67
2022/04/09 00:27:05;;;;;;;4.73;3.47;;;4.60;99.90;;;;;;5013242;28;20272;-67
2022/04/09 00:29:31;;;;;;;1.87;1.37;;;4.60;99.90;;;;;;5012723;28;20407;-66
2022/04/09 00:31:56;;;;;;;2.23;2.13;;;4.50;99.90;;;;;;5012505;28;20631;-67
2022/04/09 00:34:22;;;;;;;2.90;1.60;;;4.50;99.90;;;;;;5012278;28;20291;-68
2022/04/09 00:36:47;;;;;;;2.30;2.10;;;4.40;99.90;;;;;;5012396;28;20169;-68
2022/04/09 00:39:13;;;;;;;2.23;2.13;;;4.50;99.90;;;;;;5012655;28;20181;-67
2022/04/09 00:41:40;;;;;;;2.47;1.80;;;4.40;99.90;;;;;;5012354;28;20180;-67
2022/04/09 00:44:15;;;;;;;2.40;1.93;;;4.40;99.90;;;;;;5012548;28;20662;-67
2022/04/09 00:46:41;;;;;;;1.50;1.40;;;4.40;99.90;;;;;;5012575;28;20439;-66
2022/04/09 00:49:07;;;;;;;2.63;2.33;;;4.40;99.90;;;;;;5012170;28;20486;-67
2022/04/09 00:51:34;;;;;;;2.60;2.40;;;4.40;99.90;;;;;;5012060;28;20543;-67
2022/04/09 00:54:00;;;;;;;1.70;1.60;;;4.40;99.90;;;;;;5011963;28;20173;-67
2022/04/09 00:56:26;;;;;;;2.50;2.20;;;4.40;99.90;;;;;;5011647;28;20416;-67
2022/04/09 00:58:55;;;;;;;2.20;1.57;;;4.30;99.90;;;;;;5011827;28;20431;-68
2022/04/09 01:01:27;;;;;;;1.37;1.27;;;4.40;99.90;;;;;;5010260;28;20437;-67
2022/04/09 01:03:53;;;;;;;1.50;1.40;;;4.30;99.90;;;;;;5010800;28;20422;-70
2022/04/09 01:06:19;;;;;;;2.23;1.80;;;4.40;99.90;;;;;;5011202;28;20542;-67
2022/04/09 01:08:44;;;;;;;5.80;2.53;;;4.30;99.90;;;;;;5019767;28;20517;-67
2022/04/09 01:11:12;;;;;;;1.93;1.70;;;4.30;99.90;;;;;;5013840;28;20200;-68
2022/04/09 01:13:38;;;;;;;2.30;1.87;;;4.30;99.90;;;;;;5011220;28;20169;-67
2022/04/09 01:16:04;;;;;;;0.90;0.90;;;4.30;99.90;;;;;;5011705;28;20964;-67
2022/04/09 01:18:31;;;;;;;2.70;1.67;;;4.30;99.90;;;;;;5010163;28;20622;-67
2022/04/09 01:20:58;;;;;;;1.87;1.57;;;4.30;99.90;;;;;;5009077;28;20180;-67
2022/04/09 01:23:24;;;;;;;3.37;1.60;;;4.30;99.90;;;;;;5011427;28;20468;-67
2022/04/09 01:25:50;;;;;;;1.77;1.67;;;4.30;99.90;;;;;;5011470;28;20414;-68
2022/04/09 01:28:16;;;;;;;1.47;1.37;;;4.20;99.90;;;;;;5011456;28;20557;-68
2022/04/09 01:30:42;;;;;;;1.93;1.67;;;4.20;99.90;;;;;;5011853;28;20175;-68
2022/04/09 01:33:13;;;;;;;8.77;1.90;;;4.20;99.90;;;;;;5011719;28;20430;-67
2022/04/09 01:35:38;;;;;;;1.37;1.20;;;4.20;99.90;;;;;;5011357;28;20164;-66
2022/04/09 01:38:04;;;;;;;1.63;1.27;;;4.20;99.90;;;;;;5011323;28;20438;-66
2022/04/09 01:40:29;;;;;;;2.43;1.47;;;4.20;99.90;;;;;;5011326;28;20176;-66
2022/04/09 01:42:55;;;;;;;1.67;0.90;;;4.20;99.90;;;;;;5010969;28;20273;-67
2022/04/09 01:45:20;;;;;;;1.37;1.27;;;4.20;99.90;;;;;;5011325;28;20164;-67
2022/04/09 01:47:46;;;;;;;1.77;1.17;;;4.20;99.90;;;;;;5011234;28;20207;-67
2022/04/09 01:50:12;;;;;;;3.13;1.20;;;4.20;99.90;;;;;;5010781;28;20403;-67
2022/04/09 01:52:38;;;;;;;1.90;1.70;;;4.20;99.90;;;;;;5010728;28;20615;-67
2022/04/09 01:55:04;;;;;;;1.30;1.20;;;4.10;99.90;;;;;;5010888;28;20411;-66
2022/04/09 01:57:30;;;;;;;1.50;1.40;;;4.20;99.90;;;;;;5010677;28;20489;-67
2022/04/09 01:59:55;;;;;;;2.90;1.30;;;4.20;99.90;;;;;;5010919;28;20411;-68
2022/04/09 02:02:21;;;;;;;1.80;1.70;;;4.10;99.90;;;;;;5010799;28;20537;-67
2022/04/09 02:04:46;;;;;;;3.00;1.40;;;4.20;99.90;;;;;;5010876;28;20207;-67
2022/04/09 02:07:12;;;;;;;3.33;1.33;;;4.20;99.90;;;;;;5010842;28;20188;-68
2022/04/09 02:09:37;;;;;;;1.37;1.27;;;4.20;99.90;;;;;;5011515;28;20164;-69
2022/04/09 02:12:03;;;;;;;1.43;1.13;;;4.20;99.90;;;;;;5011223;28;20418;-67
2022/04/09 02:14:28;;;;;;;1.63;1.53;;;4.10;99.90;;;;;;5011137;28;20176;-67
2022/04/09 02:16:54;;;;;;;2.00;1.17;;;4.10;99.90;;;;;;5010832;28;20216;-66
2022/04/09 02:19:19;;;;;;;1.90;1.80;;;4.10;99.90;;;;;;5010818;28;20646;-66
2022/04/09 02:22:06;;;;;;;1.10;1.00;;;4.00;99.90;;;;;;5010898;28;20179;-67
2022/04/09 02:24:31;;;;;;;2.90;1.47;;;4.10;99.90;;;;;;5011131;28;20520;-67
2022/04/09 02:26:57;;;;;;;0.80;0.80;;;4.10;99.90;;;;;;5013459;28;20435;-66
2022/04/09 02:29:23;;;;;;;2.40;1.47;;;4.10;99.90;;;;;;5014832;28;20164;-67
2022/04/09 02:31:49;;;;;;;1.60;1.03;;;4.00;99.90;;;;;;5015177;28;20433;-67
2022/04/09 02:34:14;;;;;;;1.67;1.53;;;4.00;99.90;;;;;;5014477;28;20195;-67
2022/04/09 02:36:40;;;;;;;3.13;1.50;;;4.00;99.90;;;;;;5014447;28;20179;-67
2022/04/09 02:39:06;;;;;;;1.67;1.57;;;4.00;99.90;;;;;;4995024;28;20300;-67
2022/04/09 02:41:31;;;;;;;1.20;1.10;;;4.00;99.90;;;;;;4995215;28;20408;-66
2022/04/09 02:43:57;;;;;;;2.17;1.50;;;4.00;99.90;;;;;;4993640;28;20628;-67
2022/04/09 02:46:24;;;;;;;6.50;1.40;;;3.90;99.90;;;;;;4994670;28;20173;-67
2022/04/09 02:48:50;;;;;;;2.40;1.97;;;3.90;99.90;;;;;;4994373;28;20925;-67
2022/04/09 02:51:16;;;;;;;1.57;1.40;;;3.90;99.90;;;;;;4994545;28;20616;-68
2022/04/09 02:53:41;;;;;;;1.37;1.30;;;3.80;99.90;;;;;;4994494;28;20172;-67
2022/04/09 02:56:07;;;;;;;2.60;1.47;;;3.80;99.90;;;;;;4994321;28;20420;-67
2022/04/09 02:58:32;;;;;;;5.43;1.50;;;3.80;99.90;;;;;;4994334;28;20193;-67
2022/04/09 03:00:58;;;;;;;1.97;1.87;;;3.70;99.90;;;;;;4994700;28;20635;-67
2022/04/09 03:03:23;;;;;;;1.50;1.40;;;3.70;99.90;;;;;;4994084;28;20539;-66
2022/04/09 03:05:49;;;;;;;1.57;1.47;;;3.70;99.90;;;;;;4994285;28;20173;-66
2022/04/09 03:08:14;;;;;;;4.40;1.53;;;3.60;99.90;;;;;;4994419;28;20683;-66
2022/04/09 03:10:39;;;;;;;1.77;1.67;;;3.60;99.90;;;;;;4994326;28;20165;-66
2022/04/09 03:13:05;;;;;;;2.57;2.30;;;3.60;99.90;;;;;;4994170;28;20619;-67
2022/04/09 03:15:31;;;;;;;1.50;1.40;;;3.50;99.90;;;;;;4993913;28;20292;-67
2022/04/09 03:17:56;;;;;;;1.43;1.23;;;3.50;99.90;;;;;;4993969;28;20209;-66
2022/04/09 03:20:22;;;;;;;1.03;1.00;;;3.40;99.90;;;;;;4994238;28;20176;-66
2022/04/09 03:22:48;;;;;;;1.57;1.47;;;3.40;99.90;;;;;;4994168;28;20169;-66
2022/04/09 03:25:15;;;;;;;1.53;1.40;;;3.40;99.90;;;;;;4994535;28;20542;-67
2022/04/09 03:27:40;;;;;;;3.70;1.30;;;3.40;99.90;;;;;;4994476;28;20554;-66
2022/04/09 03:30:08;;;;;;;1.83;1.50;;;3.30;99.90;;;;;;4994324;28;20503;-67
2022/04/09 03:32:36;;;;;;;1.73;1.40;;;3.30;99.90;;;;;;4994515;28;20182;-67
2022/04/09 03:35:02;;;;;;;1.33;1.23;;;3.30;99.90;;;;;;4994801;28;20397;-67
2022/04/09 03:37:27;;;;;;;6.23;1.60;;;3.30;99.90;;;;;;4995953;28;20428;-66
2022/04/09 03:39:53;;;;;;;1.30;1.20;;;3.30;99.90;;;;;;4995908;28;20227;-66
2022/04/09 03:42:18;;;;;;;2.43;1.93;;;3.20;99.90;;;;;;4994824;28;20177;-67
2022/04/09 03:44:44;;;;;;;1.27;1.17;;;3.20;99.90;;;;;;4993873;28;20204;-67
2022/04/09 03:47:09;;;;;;;1.87;1.63;;;3.20;99.90;;;;;;4993345;28;20212;-66
2022/04/09 03:49:35;;;;;;;1.17;1.10;;;3.20;99.90;;;;;;4993461;28;20488;-66
2022/04/09 03:52:01;;;;;;;1.30;1.20;;;3.20;99.90;;;;;;4993688;28;20187;-68
2022/04/09 03:54:26;;;;;;;4.13;1.23;;;3.20;99.90;;;;;;4993496;28;20211;-67
2022/04/09 03:56:53;;;;;;;1.97;1.87;;;3.20;99.90;;;;;;4993634;28;20527;-66
2022/04/09 03:59:19;;;;;;;1.13;1.00;;;3.20;99.90;;;;;;4993945;28;20593;-66
2022/04/09 04:01:47;;;;;;;1.47;1.37;;;3.20;99.90;;;;;;4993128;28;20412;-66
2022/04/09 04:04:12;;;;;;;1.23;1.23;;;3.20;99.90;;;;;;4993086;28;20673;-66
2022/04/09 04:06:38;;;;;;;1.63;1.53;;;3.10;99.90;;;;;;4993089;28;20417;-66
2022/04/09 04:09:04;;;;;;;1.50;1.40;;;3.10;99.90;;;;;;4993238;28;20290;-66
2022/04/09 04:11:30;;;;;;;2.40;1.77;;;3.10;99.90;;;;;;4993477;28;20248;-66
2022/04/09 04:13:55;;;;;;;1.40;1.30;;;3.10;99.90;;;;;;4993826;28;20837;-67
2022/04/09 04:16:21;;;;;;;3.63;1.73;;;3.10;99.90;;;;;;4993377;28;20255;-67
2022/04/09 04:18:46;;;;;;;3.03;1.43;;;3.00;99.90;;;;;;4993083;28;20240;-66
2022/04/09 04:21:12;;;;;;;1.30;1.20;;;3.10;99.90;;;;;;4992966;28;20593;-67
2022/04/09 04:23:37;;;;;;;5.63;1.63;;;3.00;99.90;;;;;;4993009;28;20181;-66
2022/04/09 04:26:03;;;;;;;1.70;1.60;;;3.00;99.90;;;;;;4992846;28;20176;-66
2022/04/09 04:28:29;;;;;;;2.30;1.47;;;3.10;99.90;;;;;;4992826;28;20284;-66
2022/04/09 04:30:55;;;;;;;1.70;1.60;;;3.10;99.90;;;;;;4992787;28;20416;-66
2022/04/09 04:33:21;;;;;;;1.40;1.30;;;3.20;99.90;;;;;;4992649;28;20598;-67
2022/04/09 04:35:46;;;;;;;1.70;1.33;;;3.20;99.90;;;;;;4992720;28;20499;-66
2022/04/09 04:38:12;;;;;;;3.60;1.53;;;3.30;99.90;;;;;;4992920;28;20648;-67
2022/04/09 04:40:38;;;;;;;1.87;1.67;;;3.20;99.90;;;;;;4992814;28;20518;-67
2022/04/09 04:43:03;;;;;;;1.43;1.33;;;3.20;99.90;;;;;;4993047;28;20219;-66
2022/04/09 04:45:32;;;;;;;1.37;1.27;;;3.20;99.90;;;;;;4992413;28;20173;-66
2022/04/09 04:47:58;;;;;;;2.40;1.90;;;3.20;99.90;;;;;;4992050;28;20222;-67
2022/04/09 04:50:24;;;;;;;2.10;2.00;;;3.10;99.90;;;;;;4992346;28;20404;-66
2022/04/09 04:52:50;;;;;;;1.00;1.00;;;3.10;99.90;;;;;;4992267;28;20408;-65
2022/04/09 04:55:16;;;;;;;2.40;1.57;;;3.10;99.90;;;;;;4992335;28;20173;-66
2022/04/09 04:57:44;;;;;;;1.53;1.43;;;3.10;99.90;;;;;;4992518;28;20436;-66
2022/04/09 05:00:10;;;;;;;3.53;2.17;;;3.10;99.90;;;;;;4990973;28;20448;-68
2022/04/09 05:02:36;;;;;;;2.30;2.20;;;3.10;99.90;;;;;;4992230;28;20815;-66
2022/04/09 05:05:02;;;;;;;1.50;1.40;;;3.10;99.90;;;;;;4992133;28;20408;-66
2022/04/09 05:07:40;;;;;;;1.37;1.27;;;3.10;99.90;;;;;;4992092;28;20651;-66
2022/04/09 05:10:08;;;;;;;2.20;1.60;;;3.10;99.90;;;;;;4992190;28;20161;-68
2022/04/09 05:12:34;;;;;;;1.83;1.73;;;3.10;99.90;;;;;;4992067;28;20467;-67
2022/04/09 05:15:00;;;;;;;1.47;1.37;;;3.10;99.90;;;;;;4992396;28;20407;-67
2022/04/09 05:17:25;;;;;;;2.90;2.00;;;3.10;99.90;;;;;;5022297;23;20493;-71
2022/04/09 05:19:51;;;;;;;5.10;2.10;;;3.10;99.90;;;;;;5032239;28;20183;-70
2022/04/09 05:22:16;;;;;;;1.33;1.23;;;3.10;99.90;;;;;;5032275;28;20176;-70
2022/04/09 05:24:42;;;;;;;8.00;1.57;;;3.10;99.90;;;;;;5032525;28;20168;-72
2022/04/09 05:27:07;;;;;;;1.93;1.73;;;3.20;99.90;;;;;;5032318;28;20168;-72
2022/04/09 05:29:32;;;;;;;1.50;1.40;;;3.30;99.90;;;;;;5032591;28;20171;-70
2022/04/09 05:31:59;;;;;;;1.83;1.53;;;3.30;99.90;;;;;;5032339;28;20673;-70
2022/04/09 05:34:24;;;;;;;2.40;1.43;;;3.40;99.90;;;;;;5032117;28;20182;-73
2022/04/09 05:36:50;;;;;;;2.03;1.57;;;3.50;99.90;;;;;;5032663;28;20402;-71
2022/04/09 05:39:17;;;;;;;2.80;1.40;;;3.40;99.90;;;;;;5032164;28;20727;-70
2022/04/09 05:41:43;;;;;;;2.63;2.17;;;3.40;99.90;;;;;;5031700;28;20657;-71
2022/04/09 05:44:09;;;;;;;1.30;1.20;;;3.50;99.90;;;;;;5031780;28;20839;-71
2022/04/09 05:46:34;;;;;;;2.70;1.73;;;3.50;99.90;;;;;;5031732;28;20411;-71
2022/04/09 05:49:00;;;;;;;4.13;2.10;;;3.70;99.90;;;;;;5031708;28;20195;-70
2022/04/09 05:51:25;;;;;;;2.50;1.50;;;3.80;99.90;;;;;;5030581;28;20172;-71
2022/04/09 05:53:51;;;;;;;3.47;1.90;;;4.20;99.90;;;;;;5031618;28;20222;-71
2022/04/09 05:56:16;;;;;;;1.80;1.70;;;4.70;99.90;;;;;;5031447;28;20171;-70
2022/04/09 05:58:42;;;;;;;2.93;1.87;;;4.60;99.90;;;;;;5031607;28;20685;-70
2022/04/09 06:01:08;;;;;;;1.40;1.30;;;4.30;99.90;;;;;;5031457;28;20675;-72
2022/04/09 06:03:33;;;;;;;1.50;1.40;;;4.80;99.90;;;;;;5031386;28;20168;-72
2022/04/09 06:05:59;;;;;;;1.73;1.63;;;4.70;99.90;;;;;;5031347;28;20896;-71
2022/04/09 06:08:25;;;;;;;1.17;1.03;;;4.90;99.90;;;;;;5031387;28;20203;-70
2022/04/09 06:10:50;;;;;;;3.20;1.93;;;4.90;99.90;;;;;;5031536;28;20410;-71
2022/04/09 06:13:16;;;;;;;2.47;2.17;;;5.00;99.90;;;;;;5031674;28;20170;-71
2022/04/09 06:15:41;;;;;;;1.27;1.20;;;5.40;99.90;;;;;;5031285;28;20178;-71
2022/04/09 06:18:08;;;;;;;1.73;1.20;;;5.50;99.90;;;;;;5031315;28;20214;-70
2022/04/09 06:20:33;;;;;;;4.80;1.80;;;5.20;99.90;;;;;;5031305;28;20578;-70
2022/04/09 06:22:59;;;;;;;1.43;1.20;;;5.10;99.90;;;;;;5031284;28;20435;-72
2022/04/09 06:25:25;;;;;;;2.07;1.60;;;5.00;99.90;;;;;;5031005;28;20171;-71
2022/04/09 06:27:51;;;;;;;3.63;2.27;;;5.70;99.90;;;;;;5031243;28;20238;-71
2022/04/09 06:30:16;;;;;;;1.57;1.33;;;5.60;99.90;;;;;;5031300;28;20821;-71
2022/04/09 06:32:42;;;;;;;2.37;1.00;;;6.10;99.90;;;;;;5031228;28;20163;-72
2022/04/09 06:35:08;;;;;;;1.93;1.30;;;6.40;99.90;;;;;;5031121;28;20278;-71
2022/04/09 06:37:38;;;;;;;1.30;1.20;;;7.00;99.90;;;;;;5031305;28;20535;-71
2022/04/09 06:40:06;;;;;;;1.17;1.07;;;6.30;99.90;;;;;;5031004;28;20431;-70
2022/04/09 06:42:31;;;;;;;1.50;1.40;;;6.60;99.90;;;;;;5031140;28;20398;-70
2022/04/09 06:44:58;;;;;;;2.03;1.63;;;6.20;99.90;;;;;;5030945;28;20860;-71
2022/04/09 06:47:23;;;;;;;1.50;1.40;;;6.90;99.90;;;;;;5031038;28;20188;-72
2022/04/09 06:49:49;;;;;;;1.10;1.00;;;7.60;99.90;;;;;;5030863;28;20410;-71
2022/04/09 06:52:14;;;;;;;1.97;1.80;;;8.40;99.90;;;;;;5031013;28;20168;-71
2022/04/09 06:54:41;;;;;;;1.27;1.17;;;8.50;99.90;;;;;;5030613;28;20692;-72
2022/04/09 06:57:06;;;;;;;1.10;1.00;;;7.60;99.90;;;;;;5031087;28;20218;-71
2022/04/09 06:59:31;;;;;;;2.50;1.40;;;7.90;99.90;;;;;;5030830;28;20434;-72
2022/04/09 07:01:57;;;;;;;1.83;1.07;;;8.80;99.90;;;;;;5030852;28;20618;-72
2022/04/09 07:04:22;;;;;;;1.47;1.10;;;8.30;99.90;;;;;;5030667;28;20164;-72
2022/04/09 07:06:48;;;;;;;2.77;1.20;;;8.10;99.90;;;;;;5030614;28;20191;-72
2022/04/09 07:09:13;;;;;;;1.23;1.13;;;7.50;99.90;;;;;;5030532;28;20602;-72
2022/04/09 07:11:39;;;;;;;1.87;1.20;;;8.30;99.90;;;;;;5031387;28;20169;-71
2022/04/09 07:14:04;;;;;;;3.00;2.20;;;7.70;99.90;;;;;;5034461;28;20194;-71
2022/04/09 07:16:30;;;;;;;1.37;1.17;;;7.40;99.90;;;;;;5034548;28;20192;-71
2022/04/09 07:18:56;;;;;;;1.70;1.13;;;8.40;99.90;;;;;;5034255;28;20203;-72
2022/04/09 07:21:21;;;;;;;0.90;0.90;;;8.10;99.90;;;;;;5034348;28;20159;-72
2022/04/09 07:23:46;;;;;;;0.97;0.90;;;7.60;99.90;;;;;;5034383;28;20420;-71
2022/04/09 07:26:12;;;;;;;2.93;1.70;;;7.50;99.90;;;;;;5034567;28;20703;-72
2022/04/09 07:28:37;;;;;;;2.80;1.70;;;7.90;99.90;;;;;;5034204;28;20207;-71
2022/04/09 07:31:03;;;;;;;4.60;1.27;;;7.70;99.90;;;;;;5034351;28;20545;-70
2022/04/09 07:33:29;;;;;;;1.50;1.30;;;7.50;99.90;;;;;;5034050;28;20167;-70
2022/04/09 07:35:54;;;;;;;10.23;1.73;;;7.60;99.90;;;;;;5034078;28;20169;-71
2022/04/09 07:38:20;;;;;;;1.53;1.43;;;7.20;99.90;;;;;;5034007;28;20539;-73
2022/04/09 07:40:45;;;;;;;1.93;1.50;;;7.80;99.90;;;;;;5034212;28;20168;-72
2022/04/09 07:43:11;;;;;;;2.30;1.13;;;7.80;99.90;;;;;;5032527;28;20321;-71
2022/04/09 07:45:36;;;;;;;1.20;1.10;;;7.50;99.90;;;;;;5033838;28;20175;-71
2022/04/09 07:48:02;;;;;;;1.23;1.13;;;7.50;99.90;;;;;;5033900;28;20323;-71
2022/04/09 07:50:28;;;;;;;2.10;1.40;;;7.40;99.90;;;;;;5033958;28;20174;-71
2022/04/09 07:52:55;;;;;;;1.60;1.40;;;8.00;99.90;;;;;;5033779;28;20190;-70
2022/04/09 07:55:20;;;;;;;2.57;1.60;;;8.40;99.90;;;;;;5033752;28;20412;-72
2022/04/09 07:57:47;;;;;;;1.10;1.10;;;7.90;99.90;;;;;;5033906;28;20952;-71
2022/04/09 08:00:14;;;;;;;1.50;1.40;;;7.50;99.90;;;;;;5034018;28;20172;-72
2022/04/09 08:02:40;;;;;;;10.77;1.33;;;7.70;99.90;;;;;;5033908;28;20473;-72
2022/04/09 08:05:06;;;;;;;5.10;1.40;;;7.30;99.90;;;;;;5033870;28;20408;-73
2022/04/09 08:07:31;;;;;;;2.83;1.03;;;8.10;99.90;;;;;;5033439;28;20318;-72
2022/04/09 08:09:57;;;;;;;5.50;2.23;;;8.60;99.90;;;;;;5033614;28;20411;-72
2022/04/09 08:12:22;;;;;;;13.03;1.90;;;8.30;99.90;;;;;;5033460;28;20342;-71
2022/04/09 08:14:48;;;;;;;2.60;1.27;;;7.70;99.90;;;;;;5033482;28;20213;-72
2022/04/09 08:17:13;;;;;;;1.60;1.10;;;7.80;99.90;;;;;;5033575;28;20677;-72
2022/04/09 08:19:39;;;;;;;0.97;0.97;;;8.20;99.90;;;;;;5033585;28;20216;-71
2022/04/09 08:22:06;;;;;;;6.80;1.50;;;7.80;99.90;;;;;;5033446;28;20168;-71
2022/04/09 08:24:31;;;;;;;2.30;1.10;;;8.20;99.90;;;;;;5031255;28;20586;-70
2022/04/09 08:26:57;;;;;;;1.37;1.27;;;8.10;99.90;;;;;;5033361;28;20437;-72
2022/04/09 08:29:24;;;;;;;1.10;1.00;;;7.80;99.90;;;;;;5032765;28;20195;-72
2022/04/09 08:31:50;;;;;;;6.90;1.73;;;8.20;99.90;;;;;;5031987;28;20164;-72
2022/04/09 08:34:17;;;;;;;2.13;1.30;;;8.40;99.90;;;;;;5032989;28;20411;-71
2022/04/09 08:36:42;;;;;;;3.20;1.33;;;7.60;99.90;;;;;;5033119;28;20173;-72
2022/04/09 08:39:08;;;;;;;1.53;1.43;;;8.30;99.90;;;;;;5032758;28;21033;-71
2022/04/09 08:41:36;;;;;;;1.10;1.00;;;8.50;99.90;;;;;;5032777;28;20339;-72
2022/04/09 08:44:02;;;;;;;7.77;1.40;;;8.20;99.90;;;;;;5033239;28;20260;-73
2022/04/09 08:46:27;;;;;;;1.47;1.10;;;8.10;99.90;;;;;;5032652;28;20443;-70
2022/04/09 08:48:53;;;;;;;0.80;0.80;;;8.60;99.90;;;;;;5032324;28;20258;-71
2022/04/09 08:51:19;;;;;;;0.97;0.97;;;9.40;99.90;;;;;;5032194;28;20176;-71
2022/04/09 08:53:46;;;;;;;1.60;1.33;;;8.90;99.90;;;;;;5032262;28;20410;-71
2022/04/09 08:56:12;;;;;;;2.10;1.20;;;8.30;99.90;;;;;;5032519;28;20199;-71
2022/04/09 08:58:37;;;;;;;1.10;1.00;;;7.80;99.90;;;;;;5032628;28;20436;-72
2022/04/09 09:01:03;;;;;;;1.43;1.33;;;8.50;99.90;;;;;;5032731;28;20405;-71
2022/04/09 09:03:29;;;;;;;1.07;1.00;;;7.90;99.90;;;;;;5032372;28;20660;-69
2022/04/09 09:05:54;;;;;;;1.20;1.03;;;8.40;99.90;;;;;;5032141;28;20166;-71
2022/04/09 09:08:36;;;;;;;1.47;0.90;;;9.20;99.90;;;;;;5030847;28;20202;-70
2022/04/09 09:11:02;;;;;;;1.70;1.30;;;9.30;99.90;;;;;;5030745;28;20175;-71
2022/04/09 09:13:27;;;;;;;1.30;1.20;;;9.50;99.90;;;;;;5032109;28;20414;-71
2022/04/09 09:15:55;;;;;;;3.67;1.20;;;8.90;99.90;;;;;;5031978;28;20168;-70
2022/04/09 09:18:23;;;;;;;2.60;2.30;;;9.40;99.90;;;;;;5031774;28;20309;-71
2022/04/09 09:20:57;;;;;;;1.13;1.03;;;9.80;99.90;;;;;;5031944;28;20432;-73
2022/04/09 09:23:27;;;;;;;1.40;1.30;;;9.00;99.90;;;;;;5032088;28;20927;-70
2022/04/09 09:25:55;;;;;;;1.00;0.97;;;8.60;99.90;;;;;;5031924;28;20500;-72
2022/04/09 09:28:26;;;;;;;3.43;1.33;;;9.90;99.90;;;;;;5031867;28;20800;-71
2022/04/09 09:30:52;;;;;;;1.37;1.27;;;10.30;99.90;;;;;;5031595;28;20434;-70
2022/04/09 09:33:18;;;;;;;1.10;1.00;;;11.00;99.90;;;;;;5031498;28;20983;-68
2022/04/09 09:35:52;;;;;;;1.30;1.20;;;10.20;99.20;;;;;;5031254;28;20417;-69
2022/04/09 09:38:28;;;;;;;1.20;1.10;;;10.10;99.90;;;;;;5031589;28;20487;-71
2022/04/09 09:40:56;;;;;;;1.63;1.10;;;9.50;99.90;;;;;;5031663;28;20920;-71
2022/04/09 09:43:24;;;;;;;2.50;1.37;;;9.60;99.90;;;;;;5031682;28;20889;-70
2022/04/09 09:45:52;;;;;;;1.77;1.03;;;10.00;99.90;;;;;;5030178;28;20769;-70
2022/04/09 09:48:26;;;;;;;1.40;1.00;;;10.40;99.90;;;;;;5031946;28;20469;-72
2022/04/09 09:50:54;;;;;;;0.90;0.90;;;10.00;98.30;;;;;;5031893;28;20433;-72
2022/04/09 09:53:31;;;;;;;1.33;1.00;;;11.10;98.10;;;;;;5031903;28;20797;-71
2022/04/09 09:55:56;;;;;;;3.90;1.57;;;9.90;98.30;;;;;;5031349;28;20393;-71
2022/04/09 09:58:23;;;;;;;3.23;2.23;;;10.00;98.40;;;;;;5031608;28;20445;-71
2022/04/09 10:00:49;;;;;;;2.17;1.97;;;9.80;99.60;;;;;;5031946;28;20171;-71
2022/04/09 10:03:16;;;;;;;6.63;4.50;;;9.90;98.90;;;;;;5031983;28;20412;-71
2022/04/09 10:05:41;;;;;;;1.77;1.37;;;9.60;99.80;;;;;;5031430;28;20406;-70
2022/04/09 10:08:08;;;;;;;1.83;1.23;;;10.20;98.70;;;;;;5031565;28;20458;-71
2022/04/09 10:10:38;;;;;;;1.67;1.27;;;10.20;97.20;;;;;;5031566;28;20585;-71
2022/04/09 10:13:04;;;;;;;2.00;1.73;;;9.80;97.60;;;;;;5031601;28;20415;-71
2022/04/09 10:15:31;;;;;;;5.33;2.63;;;9.50;97.60;;;;;;5031870;28;20418;-70
2022/04/09 10:17:58;;;;;;;2.07;1.00;;;9.50;98.00;;;;;;5031668;28;20446;-71
2022/04/09 10:20:25;;;;;;;1.47;1.17;;;9.30;98.10;;;;;;5031733;28;20410;-70
2022/04/09 10:22:55;;;;;;;1.37;1.27;;;9.40;97.90;;;;;;5031658;28;20764;-71
2022/04/09 10:25:24;;;;;;;1.97;1.33;;;9.60;97.80;;;;;;5031745;28;20414;-72
2022/04/09 10:27:53;;;;;;;2.17;1.93;;;9.70;97.90;;;;;;5031601;28;20498;-71
2022/04/09 10:30:21;;;;;;;1.57;1.23;;;9.70;97.50;;;;;;5031650;28;20419;-72
2022/04/09 10:32:48;;;;;;;1.30;1.00;;;9.70;97.80;;;;;;5031416;28;20471;-71
2022/04/09 10:35:30;;;;;;;1.30;1.20;;;9.40;98.30;;;;;;5031450;28;20408;-71
2022/04/09 10:38:12;;;;;;;3.27;1.60;;;9.80;98.50;;;;;;5031181;28;20442;-72
2022/04/09 10:40:50;;;;;;;3.00;1.70;;;9.70;98.60;;;;;;5030743;28;20413;-71
2022/04/09 10:43:21;;;;;;;3.50;1.47;;;9.60;98.60;;;;;;5031203;28;20414;-71
2022/04/09 10:46:02;;;;;;;1.83;1.20;;;9.70;98.80;;;;;;5031349;28;20402;-72
2022/04/09 10:48:31;;;;;;;5.10;1.97;;;9.50;98.00;;;;;;5034901;28;20454;-71
2022/04/09 10:51:05;;;;;;;4.53;2.20;;;9.70;99.30;;;;;;5035147;28;20403;-69
2022/04/09 10:53:40;;;;;;;27.17;15.13;;;9.50;98.90;;;;;;5035328;28;20395;-70
2022/04/09 10:56:29;;;;;;;3.30;2.50;;;9.70;99.90;;;;;;5035088;28;20401;-70
2022/04/09 10:59:04;;;;;;;5.40;2.00;;;9.30;99.10;;;;;;5035575;28;20418;-71
2022/04/09 11:01:46;;;;;;;0.80;0.80;;;9.90;99.60;;;;;;5035137;28;20497;-72
2022/04/09 11:04:34;;;;;;;3.50;1.10;;;9.80;98.70;;;;;;5035073;28;20508;-71
2022/04/09 11:07:02;;;;;;;7.07;1.30;;;9.50;99.00;;;;;;5034876;28;20877;-71
2022/04/09 11:09:53;;;;;;;2.47;1.00;;;9.40;98.80;;;;;;5034393;28;20485;-71
2022/04/09 11:12:30;;;;;;;0.97;0.97;;;9.40;99.10;;;;;;5034539;28;20461;-71
2022/04/09 11:15:01;;;;;;;2.83;0.93;;;9.50;98.50;;;;;;5034171;28;20409;-73
2022/04/09 11:17:28;;;;;;;3.80;1.70;;;9.90;98.60;;;;;;5058530;23;20447;-66
2022/04/09 11:19:55;;;;;;;1.20;0.90;;;10.40;98.00;;;;;;5030768;28;20934;-66
2022/04/09 11:22:21;;;;;;;1.40;1.30;;;10.50;97.90;;;;;;5033779;28;20413;-66
2022/04/09 11:24:47;;;;;;;1.80;1.33;;;10.00;96.90;;;;;;5033496;28;20408;-65
2022/04/09 11:27:13;;;;;;;1.30;1.20;;;10.10;97.20;;;;;;5033353;28;20419;-65
2022/04/09 11:29:41;;;;;;;2.30;1.63;;;9.80;97.70;;;;;;5033383;28;20519;-64
2022/04/09 11:32:15;;;;;;;1.53;0.97;;;9.80;98.10;;;;;;5034003;28;20262;-65
2022/04/09 11:34:51;;;;;;;1.13;1.03;;;10.00;97.80;;;;;;5033833;28;20405;-66
2022/04/09 11:37:17;;;;;;;4.50;1.40;;;10.10;96.20;;;;;;5031948;28;20403;-66
2022/04/09 11:39:45;;;;;;;1.50;1.20;;;10.10;96.10;;;;;;5033418;28;21024;-66
2022/04/09 11:42:11;;;;;;;1.80;0.83;;;9.90;95.90;;;;;;5033163;28;20432;-65
2022/04/09 11:44:40;;;;;;;1.33;1.23;;;10.10;95.90;;;;;;5033227;28;20411;-65
2022/04/09 11:47:11;;;;;;;3.43;1.30;;;10.00;96.20;;;;;;5031884;28;20439;-66
2022/04/09 11:49:37;;;;;;;2.40;1.10;;;10.10;95.90;;;;;;5032740;28;20462;-66
2022/04/09 11:52:04;;;;;;;1.13;1.00;;;10.00;96.00;;;;;;5032932;28;20411;-66
2022/04/09 11:54:34;;;;;;;6.53;1.17;;;10.10;95.90;;;;;;5032895;28;20402;-65
2022/04/09 11:57:01;;;;;;;2.73;0.90;;;10.20;96.10;;;;;;5033176;28;20407;-67
2022/04/09 11:59:28;;;;;;;0.80;0.80;;;10.10;96.80;;;;;;5033118;28;20437;-65
2022/04/09 12:01:54;;;;;;;1.57;0.77;;;9.50;97.60;;;;;;5033079;28;20417;-65
2022/04/09 12:04:20;;;;;;;0.93;0.83;;;9.40;98.20;;;;;;5032719;28;20410;-65
2022/04/09 12:06:46;;;;;;;1.97;1.37;;;9.80;99.20;;;;;;5032757;28;20180;-66
2022/04/09 12:09:13;;;;;;;1.13;0.93;;;10.20;98.20;;;;;;5032977;28;20603;-66
2022/04/09 12:11:55;;;;;;;1.37;1.00;;;10.30;98.40;;;;;;5022641;28;20251;-65
2022/04/09 12:14:20;;;;;;;1.97;1.20;;;10.50;98.00;;;;;;5036388;28;20810;-65
2022/04/09 12:16:47;;;;;;;1.23;1.03;;;10.00;97.90;;;;;;5052886;28;20467;-66
2022/04/09 12:19:13;;;;;;;0.70;0.70;;;9.90;98.00;;;;;;5052721;28;20284;-65
2022/04/09 12:21:39;;;;;;;0.90;0.90;;;10.20;96.80;;;;;;5052238;28;20482;-66
2022/04/09 12:24:08;;;;;;;1.10;1.00;;;10.60;97.50;;;;;;5052279;28;20480;-65
2022/04/09 12:26:42;;;;;;;0.80;0.80;;;10.60;97.30;;;;;;5052485;28;20424;-65
2022/04/09 12:29:20;;;;;;;0.80;0.80;;;10.50;97.40;;;;;;5052837;28;20806;-65
2022/04/09 12:31:48;;;;;;;1.33;0.97;;;10.50;97.60;;;;;;5037950;28;20480;-67
2022/04/09 12:34:14;;;;;;;0.90;0.80;;;10.70;97.60;;;;;;5032766;28;20443;-66
2022/04/09 12:37:05;;;;;;;1.37;1.00;;;10.60;97.80;;;;;;5032276;28;20828;-66
2022/04/09 12:39:33;;;;;;;2.33;0.90;;;10.30;98.30;;;;;;5032600;28;20529;-65
2022/04/09 12:41:59;;;;;;;1.00;0.90;;;10.50;98.80;;;;;;5032363;28;20404;-66
2022/04/09 12:44:32;;;;;;;1.40;1.00;;;10.40;99.10;;;;;;5032395;28;20480;-67
2022/04/09 12:46:58;;;;;;;2.70;0.80;;;10.50;98.90;;;;;;5032357;28;20174;-66
2022/04/09 12:49:35;;;;;;;1.00;0.70;;;10.60;98.00;;;;;;5032000;28;20489;-65
2022/04/09 12:52:03;;;;;;;7.33;1.37;;;10.40;98.20;;;;;;5032102;28;20407;-66
2022/04/09 12:54:30;;;;;;;0.80;0.80;;;10.40;98.10;;;;;;5032033;28;20989;-66